Time;durP1;ratioP1;P1;durP2;ratioP2;P2;SDS_P1;SDS_P2;PMS_P1;PMS_P2;Temp;Humidity;BMP_temperature;BMP_pressure;BME280_temperature;BME280_humidity;BME280_pressure;Samples;Min_cycle;Max_cycle;Signal;HPM_P1;HPM_P2
2022/11/20 00:01:12;;;;;;;12.85;10.88;;;6.60;99.90;;;;;;4993962;28;20175;-75
2022/11/20 00:03:38;;;;;;;13.40;10.13;;;6.60;99.90;;;;;;4993719;28;20214;-75
2022/11/20 00:06:10;;;;;;;12.95;10.60;;;6.60;99.90;;;;;;4993627;28;20253;-75
2022/11/20 00:08:36;;;;;;;11.90;10.25;;;6.50;99.90;;;;;;4993957;28;20694;-76
2022/11/20 00:11:05;;;;;;;10.43;8.63;;;6.50;99.90;;;;;;4993581;28;20183;-75
2022/11/20 00:13:32;;;;;;;10.85;9.15;;;6.60;99.90;;;;;;4993516;28;20974;-76
2022/11/20 00:15:59;;;;;;;10.88;9.40;;;6.60;99.90;;;;;;4992405;28;20609;-76
2022/11/20 00:18:25;;;;;;;9.32;8.32;;;6.60;99.90;;;;;;4993898;28;20539;-76
2022/11/20 00:20:51;;;;;;;11.00;9.85;;;6.70;99.90;;;;;;4993689;28;20195;-76
2022/11/20 00:23:17;;;;;;;11.83;9.37;;;6.70;99.90;;;;;;4976124;28;20716;-76
2022/11/20 00:25:42;;;;;;;10.60;9.50;;;6.70;99.90;;;;;;4992484;28;20698;-76
2022/11/20 00:28:08;;;;;;;9.90;8.90;;;6.70;99.90;;;;;;4994051;28;20191;-76
2022/11/20 00:30:34;;;;;;;10.60;9.50;;;6.70;99.90;;;;;;4979092;28;20167;-75
2022/11/20 00:32:59;;;;;;;12.80;9.43;;;6.70;99.90;;;;;;4991857;28;20546;-76
2022/11/20 00:35:25;;;;;;;12.43;10.30;;;6.70;99.90;;;;;;4993558;28;20696;-75
2022/11/20 00:37:51;;;;;;;11.83;10.03;;;6.70;99.90;;;;;;4993366;28;20254;-75
2022/11/20 00:40:17;;;;;;;11.73;9.40;;;6.80;99.90;;;;;;4992282;28;20175;-75
2022/11/20 00:42:42;;;;;;;10.90;9.43;;;6.70;99.90;;;;;;4992481;28;20179;-75
2022/11/20 00:45:08;;;;;;;10.37;8.97;;;6.70;99.90;;;;;;4992263;28;20211;-75
2022/11/20 00:47:34;;;;;;;9.10;7.97;;;6.70;99.90;;;;;;4993044;28;20613;-75
2022/11/20 00:50:00;;;;;;;9.53;8.43;;;6.70;99.90;;;;;;4993360;28;20563;-75
2022/11/20 00:52:26;;;;;;;11.73;9.77;;;6.70;99.90;;;;;;4975361;28;20267;-76
2022/11/20 00:54:52;;;;;;;10.20;9.10;;;6.70;99.90;;;;;;4993117;28;20766;-75
2022/11/20 00:57:18;;;;;;;11.33;10.00;;;6.70;99.90;;;;;;4992855;28;20197;-75
2022/11/20 00:59:44;;;;;;;9.40;8.23;;;6.60;99.90;;;;;;4993039;28;20202;-76
2022/11/20 01:02:09;;;;;;;12.33;10.03;;;6.60;99.90;;;;;;4975239;28;20175;-76
2022/11/20 01:04:35;;;;;;;10.43;8.77;;;6.60;99.90;;;;;;4993401;28;20618;-76
2022/11/20 01:07:01;;;;;;;13.33;11.00;;;6.60;99.90;;;;;;4996581;28;20171;-74
2022/11/20 01:09:26;;;;;;;12.47;10.90;;;6.50;99.90;;;;;;4992651;28;20199;-75
2022/11/20 01:11:52;;;;;;;10.20;8.90;;;6.60;99.90;;;;;;4992084;28;20780;-76
2022/11/20 01:14:19;;;;;;;10.37;8.63;;;6.60;99.90;;;;;;4992279;28;20502;-75
2022/11/20 01:16:48;;;;;;;10.63;9.52;;;6.60;99.90;;;;;;4992845;28;20171;-75
2022/11/20 01:19:16;;;;;;;11.18;9.40;;;6.70;99.90;;;;;;4992423;28;20168;-75
2022/11/20 01:21:44;;;;;;;13.20;9.73;;;6.60;99.90;;;;;;4992592;28;20167;-75
2022/11/20 01:24:15;;;;;;;10.93;9.15;;;6.60;99.90;;;;;;4990899;28;20198;-75
2022/11/20 01:26:42;;;;;;;11.85;10.52;;;6.60;99.90;;;;;;4991276;28;20179;-75
2022/11/20 01:29:19;;;;;;;11.80;9.88;;;6.60;99.90;;;;;;4974856;28;20191;-75
2022/11/20 01:31:44;;;;;;;9.90;8.70;;;6.60;99.90;;;;;;4992419;28;20197;-75
2022/11/20 01:34:13;;;;;;;10.40;8.40;;;6.70;99.90;;;;;;4991979;28;20210;-75
2022/11/20 01:36:40;;;;;;;10.80;8.60;;;6.70;99.90;;;;;;4992422;28;20187;-75
2022/11/20 01:39:11;;;;;;;11.02;9.48;;;6.70;99.90;;;;;;4992202;28;20171;-76
2022/11/20 01:44:42;;;;;;;11.60;9.05;;;6.70;99.90;;;;;;4995813;28;20762;-75
2022/11/20 01:47:11;;;;;;;9.25;8.30;;;6.70;99.90;;;;;;4992182;28;20171;-76
2022/11/20 01:49:42;;;;;;;10.70;9.57;;;6.70;99.90;;;;;;4991029;28;20155;-76
2022/11/20 01:52:17;;;;;;;10.20;8.05;;;6.60;99.90;;;;;;4991605;28;20194;-76
2022/11/20 01:54:53;;;;;;;11.10;9.35;;;6.60;99.90;;;;;;4992000;28;20191;-76
2022/11/20 01:57:20;;;;;;;13.38;9.50;;;6.60;99.90;;;;;;4991784;28;20871;-76
2022/11/20 01:59:56;;;;;;;11.45;9.80;;;6.60;99.90;;;;;;4991814;28;20171;-75
2022/11/20 02:02:22;;;;;;;11.57;9.85;;;6.60;99.90;;;;;;4991317;28;20175;-75
2022/11/20 02:04:51;;;;;;;12.80;9.43;;;6.60;99.90;;;;;;4991724;28;20207;-76
2022/11/20 02:07:18;;;;;;;13.13;11.38;;;6.60;99.90;;;;;;4990226;28;20167;-76
2022/11/20 02:09:44;;;;;;;12.43;10.70;;;6.60;99.90;;;;;;4991653;28;20214;-76
2022/11/20 02:13:42;;;;;;;12.23;11.00;;;6.60;99.90;;;;;;4991062;28;20171;-76
2022/11/20 02:14:57;;;;;;;12.40;10.02;;;6.60;99.90;;;;;;4991642;28;20464;-74
2022/11/20 02:17:24;;;;;;;10.70;9.65;;;6.50;99.90;;;;;;4991535;28;20217;-74
2022/11/20 02:19:49;;;;;;;11.60;10.10;;;6.50;99.90;;;;;;4992633;28;20175;-75
2022/11/20 02:22:42;;;;;;;10.43;9.20;;;6.50;99.90;;;;;;4992462;28;20222;-76
2022/11/20 02:25:09;;;;;;;11.50;9.48;;;6.50;99.90;;;;;;4991606;28;20183;-76
2022/11/20 02:27:35;;;;;;;10.43;9.35;;;6.50;99.90;;;;;;4991144;28;20243;-75
2022/11/20 02:30:07;;;;;;;13.10;10.17;;;6.50;99.90;;;;;;4991498;28;20527;-76
2022/11/20 02:32:35;;;;;;;11.52;9.63;;;6.50;99.90;;;;;;4990737;28;20167;-75
2022/11/20 02:35:09;;;;;;;11.65;10.45;;;6.40;99.90;;;;;;4991266;28;20191;-75
2022/11/20 02:37:39;;;;;;;11.60;10.32;;;6.40;99.90;;;;;;4973492;28;20265;-76
2022/11/20 02:40:06;;;;;;;14.55;10.98;;;6.40;99.90;;;;;;4991290;28;20171;-76
2022/11/20 02:42:31;;;;;;;10.57;8.15;;;6.30;99.90;;;;;;4990892;28;20171;-76
2022/11/20 02:45:05;;;;;;;12.02;10.20;;;6.30;99.90;;;;;;5066614;28;20807;-74
2022/11/20 02:47:31;;;;;;;13.02;10.07;;;6.30;99.90;;;;;;5067556;28;20276;-75
2022/11/20 02:49:57;;;;;;;13.40;10.77;;;6.40;99.90;;;;;;5066568;28;20630;-75
2022/11/20 02:52:24;;;;;;;13.30;10.63;;;6.50;99.90;;;;;;5032081;28;20581;-76
2022/11/20 02:54:49;;;;;;;12.00;9.60;;;6.50;99.90;;;;;;5064951;28;20773;-75
2022/11/20 02:57:15;;;;;;;12.60;11.40;;;6.50;99.90;;;;;;5069690;28;20165;-75
2022/11/20 02:59:41;;;;;;;13.30;11.27;;;6.50;99.90;;;;;;5067852;28;20744;-75
2022/11/20 03:02:07;;;;;;;12.60;10.30;;;6.50;99.90;;;;;;5066473;28;20165;-75
2022/11/20 03:04:33;;;;;;;12.53;9.80;;;6.40;99.90;;;;;;5066402;28;20699;-76
2022/11/20 03:06:58;;;;;;;10.87;9.73;;;6.40;99.90;;;;;;5067037;28;20537;-75
2022/11/20 03:09:24;;;;;;;11.67;9.77;;;6.30;99.90;;;;;;5066412;28;20195;-75
2022/11/20 03:11:50;;;;;;;12.83;10.43;;;6.20;99.90;;;;;;5066565;28;20252;-75
2022/11/20 03:14:16;;;;;;;12.23;10.63;;;6.20;99.90;;;;;;5066296;28;20219;-76
2022/11/20 03:16:41;;;;;;;10.10;8.40;;;6.10;99.90;;;;;;5064905;28;20538;-75
2022/11/20 03:19:07;;;;;;;11.77;10.07;;;6.20;99.90;;;;;;5066411;28;20670;-75
2022/11/20 03:21:34;;;;;;;13.77;9.93;;;6.20;99.90;;;;;;5065936;28;20306;-75
2022/11/20 03:24:00;;;;;;;11.95;9.48;;;6.30;99.90;;;;;;5065918;28;20700;-75
2022/11/20 03:26:27;;;;;;;9.52;8.35;;;6.30;99.90;;;;;;5065992;28;20268;-76
2022/11/20 03:29:00;;;;;;;11.20;9.20;;;6.40;99.90;;;;;;5064967;28;20172;-75
2022/11/20 03:31:32;;;;;;;12.20;8.93;;;6.40;99.90;;;;;;5065758;28;20655;-75
2022/11/20 03:33:59;;;;;;;11.32;9.40;;;6.40;99.90;;;;;;5066522;28;20200;-75
2022/11/20 03:36:25;;;;;;;10.35;9.27;;;6.30;99.90;;;;;;5068823;28;20172;-75
2022/11/20 03:38:54;;;;;;;11.40;10.20;;;6.30;99.90;;;;;;5065889;28;20179;-75
2022/11/20 03:41:22;;;;;;;10.95;9.05;;;6.40;99.90;;;;;;5065462;28;20254;-76
2022/11/20 03:43:50;;;;;;;11.60;9.07;;;6.40;99.90;;;;;;5065312;28;20200;-75
2022/11/20 03:46:16;;;;;;;11.30;10.10;;;6.40;99.90;;;;;;5065699;28;20534;-75
2022/11/20 03:48:42;;;;;;;12.32;10.68;;;6.50;99.90;;;;;;5064355;28;20516;-76
2022/11/20 03:51:23;;;;;;;10.65;9.25;;;6.50;99.90;;;;;;5065529;28;20177;-76
2022/11/20 03:53:50;;;;;;;11.85;9.70;;;6.40;99.90;;;;;;5064974;28;20242;-76
2022/11/20 03:56:17;;;;;;;11.48;9.63;;;6.40;99.90;;;;;;5053294;28;20219;-76
2022/11/20 03:58:43;;;;;;;11.63;9.05;;;6.40;99.90;;;;;;5050947;28;20634;-75
2022/11/20 04:01:11;;;;;;;11.77;9.53;;;6.50;99.90;;;;;;5052366;28;20169;-76
2022/11/20 04:03:39;;;;;;;12.35;10.90;;;6.50;99.90;;;;;;5051510;28;20634;-76
2022/11/20 04:06:25;;;;;;;12.50;11.20;;;6.50;99.90;;;;;;5050982;28;20165;-76
2022/11/20 04:08:53;;;;;;;11.05;8.30;;;6.60;99.90;;;;;;5052181;28;20161;-75
2022/11/20 04:11:22;;;;;;;10.43;9.30;;;6.60;99.90;;;;;;5052882;28;20651;-76
2022/11/20 04:13:55;;;;;;;11.00;7.80;;;6.60;99.90;;;;;;5054825;28;20185;-76
2022/11/20 04:16:22;;;;;;;13.57;11.52;;;6.50;99.90;;;;;;5052089;28;20169;-76
2022/11/20 04:18:52;;;;;;;10.93;9.10;;;6.40;99.90;;;;;;5051865;28;20165;-76
2022/11/20 04:21:18;;;;;;;11.25;9.90;;;6.30;99.90;;;;;;5051801;28;20168;-76
2022/11/20 04:23:44;;;;;;;12.67;10.90;;;6.30;99.90;;;;;;5051292;28;20282;-75
2022/11/20 04:26:11;;;;;;;12.40;11.07;;;6.20;99.90;;;;;;5051888;28;20161;-75
2022/11/20 04:28:38;;;;;;;11.38;9.85;;;6.10;99.90;;;;;;5050562;28;20173;-76
2022/11/20 04:31:12;;;;;;;10.68;8.65;;;6.00;99.90;;;;;;5050018;28;20209;-76
2022/11/20 04:33:38;;;;;;;9.70;8.18;;;5.90;99.90;;;;;;5051392;28;20239;-76
2022/11/20 04:36:12;;;;;;;12.00;9.32;;;5.90;99.90;;;;;;5051536;28;20524;-75
2022/11/20 04:38:38;;;;;;;12.18;9.48;;;5.90;99.90;;;;;;5051627;28;20165;-76
2022/11/20 04:41:09;;;;;;;10.70;8.80;;;5.90;99.90;;;;;;5050148;28;20180;-76
2022/11/20 04:43:35;;;;;;;13.57;9.88;;;5.90;99.90;;;;;;5049887;28;20284;-76
2022/11/20 04:46:01;;;;;;;12.67;10.03;;;5.90;99.90;;;;;;5051710;28;20255;-75
2022/11/20 04:48:29;;;;;;;12.90;10.30;;;5.90;99.90;;;;;;5054131;28;20176;-76
2022/11/20 04:50:55;;;;;;;11.95;10.35;;;5.90;99.90;;;;;;5054070;28;20252;-75
2022/11/20 04:53:22;;;;;;;12.93;10.30;;;6.00;99.90;;;;;;5050987;28;20296;-76
2022/11/20 04:55:47;;;;;;;12.85;9.82;;;6.00;99.90;;;;;;5051019;28;20622;-76
2022/11/20 04:58:14;;;;;;;13.03;10.40;;;6.00;99.90;;;;;;5051353;28;20204;-76
2022/11/20 05:00:40;;;;;;;12.45;9.95;;;6.10;99.90;;;;;;5049775;28;20571;-76
2022/11/20 05:03:06;;;;;;;12.03;9.87;;;6.10;99.90;;;;;;5050562;28;20701;-76
2022/11/20 05:05:33;;;;;;;13.27;10.55;;;6.20;99.90;;;;;;5050998;28;20651;-76
2022/11/20 05:08:02;;;;;;;12.02;9.93;;;6.20;99.90;;;;;;5048435;28;20201;-76
2022/11/20 05:10:28;;;;;;;10.88;9.05;;;6.30;99.90;;;;;;5051085;28;20511;-75
2022/11/20 05:13:08;;;;;;;12.15;10.75;;;6.30;99.90;;;;;;5050332;28;20169;-75
2022/11/20 05:15:46;;;;;;;10.90;8.85;;;6.40;99.90;;;;;;5049710;28;20165;-75
2022/11/20 05:18:11;;;;;;;10.80;8.60;;;6.40;99.90;;;;;;5050682;28;20165;-75
2022/11/20 05:20:37;;;;;;;11.13;9.90;;;6.50;99.90;;;;;;5050877;28;20188;-75
2022/11/20 05:23:03;;;;;;;11.67;10.07;;;6.50;99.90;;;;;;5058220;22;20244;-79
2022/11/20 05:25:28;;;;;;;14.10;10.27;;;6.60;99.90;;;;;;5039484;28;20169;-79
2022/11/20 05:27:54;;;;;;;12.73;9.90;;;6.60;99.90;;;;;;5039111;28;20173;-79
2022/11/20 05:30:20;;;;;;;12.40;10.70;;;6.60;99.90;;;;;;5046405;28;20180;-79
2022/11/20 05:32:46;;;;;;;14.43;9.83;;;6.70;99.90;;;;;;5048599;28;20571;-79
2022/11/20 05:35:11;;;;;;;13.23;10.90;;;6.70;99.90;;;;;;5042083;28;20541;-80
2022/11/20 05:37:37;;;;;;;14.17;11.17;;;6.70;99.90;;;;;;5042248;28;20169;-79
2022/11/20 05:40:03;;;;;;;14.17;11.37;;;6.80;99.90;;;;;;5050331;28;20659;-79
2022/11/20 05:42:32;;;;;;;13.10;10.98;;;6.80;99.90;;;;;;5050124;28;20232;-79
2022/11/20 05:44:59;;;;;;;12.60;10.27;;;6.80;99.90;;;;;;5049240;28;20279;-80
2022/11/20 05:47:26;;;;;;;11.88;10.63;;;6.90;99.90;;;;;;5050746;28;20165;-80
2022/11/20 05:49:51;;;;;;;12.23;9.65;;;6.90;99.90;;;;;;5048939;28;20540;-80
2022/11/20 05:52:17;;;;;;;12.17;10.50;;;6.90;99.90;;;;;;5048651;28;20185;-80
2022/11/20 05:54:43;;;;;;;14.83;11.57;;;6.90;99.90;;;;;;5050008;28;20177;-80
2022/11/20 05:57:08;;;;;;;15.30;12.20;;;6.90;99.90;;;;;;5049247;28;20173;-80
2022/11/20 05:59:34;;;;;;;11.53;10.40;;;6.90;99.90;;;;;;5049978;28;20169;-80
2022/11/20 06:02:00;;;;;;;12.07;9.80;;;6.90;99.90;;;;;;5049801;28;20224;-80
2022/11/20 06:04:26;;;;;;;13.80;10.80;;;6.80;99.90;;;;;;5048621;28;20240;-80
2022/11/20 06:06:52;;;;;;;14.67;11.20;;;6.80;99.90;;;;;;5050097;28;20201;-80
2022/11/20 06:09:18;;;;;;;15.23;11.20;;;6.80;99.90;;;;;;5049900;28;20571;-80
2022/11/20 06:11:44;;;;;;;14.80;13.20;;;6.90;99.90;;;;;;5049644;28;20551;-80
2022/11/20 06:14:09;;;;;;;11.80;10.17;;;6.90;99.90;;;;;;5049772;28;20549;-79
2022/11/20 06:16:35;;;;;;;11.60;10.40;;;6.90;99.90;;;;;;5048354;28;20168;-80
2022/11/20 06:19:01;;;;;;;12.33;10.67;;;6.90;99.90;;;;;;5049702;28;20176;-80
2022/11/20 06:21:26;;;;;;;13.23;11.07;;;6.90;99.90;;;;;;5049260;28;20550;-80
2022/11/20 06:23:53;;;;;;;12.93;11.30;;;6.90;99.90;;;;;;5049532;28;20278;-80
2022/11/20 06:26:24;;;;;;;12.80;10.45;;;6.90;99.90;;;;;;5049479;28;20578;-80
2022/11/20 06:28:52;;;;;;;15.75;12.05;;;6.90;99.90;;;;;;5048450;28;20207;-80
2022/11/20 06:31:21;;;;;;;14.25;11.50;;;6.90;99.90;;;;;;5047914;28;20259;-80
2022/11/20 06:33:47;;;;;;;13.50;12.10;;;6.90;99.90;;;;;;5048121;28;20814;-80
2022/11/20 06:36:16;;;;;;;13.95;11.50;;;6.90;99.90;;;;;;5049637;28;20184;-80
2022/11/20 06:38:42;;;;;;;15.05;11.52;;;6.90;99.90;;;;;;5049804;28;20258;-80
2022/11/20 06:41:14;;;;;;;13.85;10.82;;;6.90;99.90;;;;;;5049641;28;20173;-80
2022/11/20 06:43:40;;;;;;;15.05;11.85;;;6.90;99.90;;;;;;5049140;28;20243;-80
2022/11/20 06:46:05;;;;;;;13.77;10.40;;;6.90;99.90;;;;;;5050155;28;20590;-80
2022/11/20 06:48:31;;;;;;;15.00;12.30;;;6.90;99.90;;;;;;5050253;28;20244;-80
2022/11/20 06:50:58;;;;;;;17.37;11.83;;;6.90;99.90;;;;;;5049709;28;20192;-80
2022/11/20 06:53:24;;;;;;;17.13;13.60;;;6.90;99.90;;;;;;5049007;28;20595;-80
2022/11/20 06:55:51;;;;;;;16.55;12.88;;;7.00;99.90;;;;;;5049669;28;20161;-80
2022/11/20 06:58:17;;;;;;;16.58;12.13;;;6.90;99.90;;;;;;5048038;28;20177;-80
2022/11/20 07:00:44;;;;;;;14.75;11.45;;;7.00;99.90;;;;;;5045387;28;20288;-80
2022/11/20 07:03:11;;;;;;;14.80;12.80;;;7.00;99.90;;;;;;5028745;28;20277;-80
2022/11/20 07:05:38;;;;;;;13.40;11.48;;;7.00;99.90;;;;;;5029554;28;20166;-80
2022/11/20 07:08:04;;;;;;;14.27;11.45;;;7.00;99.90;;;;;;5029129;28;20173;-80
2022/11/20 07:10:30;;;;;;;15.23;11.68;;;7.00;99.90;;;;;;5028341;28;20173;-80
2022/11/20 07:12:56;;;;;;;15.63;12.43;;;7.00;99.90;;;;;;5029145;28;20182;-80
2022/11/20 07:15:24;;;;;;;15.07;12.80;;;7.10;99.90;;;;;;5029337;28;20162;-80
2022/11/20 07:17:50;;;;;;;14.55;12.05;;;7.10;99.90;;;;;;5029649;28;20166;-80
2022/11/20 07:20:16;;;;;;;15.10;12.07;;;7.10;99.90;;;;;;5033720;28;20196;-80
2022/11/20 07:22:44;;;;;;;14.85;12.30;;;7.10;99.90;;;;;;5038587;28;20656;-80
2022/11/20 07:25:10;;;;;;;15.40;12.00;;;7.10;99.90;;;;;;5037013;28;20178;-80
2022/11/20 07:27:36;;;;;;;14.17;10.90;;;7.10;99.90;;;;;;5039345;28;20185;-80
2022/11/20 07:30:03;;;;;;;13.37;11.17;;;7.20;99.90;;;;;;5042732;28;20162;-80
2022/11/20 07:32:29;;;;;;;14.00;10.90;;;7.20;99.90;;;;;;5046662;28;20629;-80
2022/11/20 07:34:54;;;;;;;11.80;10.23;;;7.20;99.90;;;;;;5041630;28;20166;-78
2022/11/20 07:37:21;;;;;;;11.53;10.30;;;7.20;99.90;;;;;;5038976;28;20576;-79
2022/11/20 07:39:47;;;;;;;12.55;9.60;;;7.30;99.90;;;;;;5034740;28;20170;-79
2022/11/20 07:42:28;;;;;;;11.82;10.45;;;7.30;99.90;;;;;;5041449;28;20283;-78
2022/11/20 07:44:55;;;;;;;11.60;10.38;;;7.30;99.90;;;;;;5033228;28;20208;-80
2022/11/20 07:47:21;;;;;;;10.30;8.10;;;7.40;99.90;;;;;;5033839;28;20617;-80
2022/11/20 07:49:47;;;;;;;12.30;10.50;;;7.40;99.90;;;;;;5033784;28;20169;-80
2022/11/20 07:52:13;;;;;;;15.48;10.43;;;7.40;99.90;;;;;;5031287;28;20186;-80
2022/11/20 07:54:38;;;;;;;12.67;9.90;;;7.40;99.90;;;;;;5033032;28;20169;-80
2022/11/20 07:57:04;;;;;;;10.20;8.63;;;7.50;99.90;;;;;;5032768;28;20173;-79
2022/11/20 07:59:30;;;;;;;11.47;8.87;;;7.50;99.90;;;;;;5032880;28;20169;-80
2022/11/20 08:01:56;;;;;;;10.97;9.17;;;7.50;99.90;;;;;;5032005;28;20596;-79
2022/11/20 08:04:23;;;;;;;11.83;9.60;;;7.60;99.90;;;;;;5035175;28;20197;-78
2022/11/20 08:06:49;;;;;;;14.65;10.70;;;7.60;99.90;;;;;;5035739;28;20166;-77
2022/11/20 08:09:14;;;;;;;12.97;9.17;;;7.60;99.90;;;;;;5036683;28;20652;-78
2022/11/20 08:14:24;;;;;;;11.95;8.82;;;7.60;99.90;;;;;;5030422;28;20243;-80
2022/11/20 08:16:50;;;;;;;10.90;9.60;;;7.60;99.90;;;;;;5027731;28;20806;-80
2022/11/20 08:19:18;;;;;;;9.87;8.63;;;7.60;99.90;;;;;;5024049;28;20588;-80
2022/11/20 08:21:44;;;;;;;17.42;10.77;;;7.60;99.90;;;;;;5032262;28;21256;-80
2022/11/20 08:24:11;;;;;;;10.88;9.32;;;7.60;99.90;;;;;;5031800;28;20193;-80
2022/11/20 08:26:38;;;;;;;11.02;9.70;;;7.70;99.90;;;;;;5032386;28;20555;-80
2022/11/20 08:29:06;;;;;;;13.85;10.77;;;7.80;99.90;;;;;;5040735;28;20169;-80
2022/11/20 08:31:32;;;;;;;11.13;9.93;;;7.80;99.90;;;;;;5031611;28;20181;-80
2022/11/20 08:33:58;;;;;;;12.60;10.68;;;7.90;99.90;;;;;;5032042;28;20312;-81
2022/11/20 08:36:24;;;;;;;10.37;9.27;;;7.90;99.90;;;;;;5031891;28;20256;-80
2022/11/20 08:38:52;;;;;;;13.75;10.85;;;7.90;99.90;;;;;;5031118;28;20261;-80
2022/11/20 08:41:25;;;;;;;14.15;11.25;;;8.00;99.90;;;;;;5031331;28;20185;-81
2022/11/20 08:43:54;;;;;;;13.68;11.10;;;8.00;99.90;;;;;;5032885;28;20551;-81
2022/11/20 08:46:19;;;;;;;13.40;10.60;;;8.10;99.90;;;;;;5031644;28;20178;-79
2022/11/20 08:48:45;;;;;;;10.17;9.07;;;8.20;99.90;;;;;;5030958;28;20173;-81
2022/11/20 08:51:12;;;;;;;12.50;9.90;;;8.20;99.90;;;;;;5031271;28;20234;-80
2022/11/20 08:53:39;;;;;;;11.77;10.00;;;8.20;99.90;;;;;;5031615;28;20178;-81
2022/11/20 08:56:05;;;;;;;13.35;10.40;;;8.20;99.90;;;;;;5031629;28;20173;-81
2022/11/20 08:58:31;;;;;;;14.85;10.70;;;8.20;99.90;;;;;;5032980;28;20189;-81
2022/11/20 09:00:56;;;;;;;13.17;10.17;;;8.30;99.90;;;;;;5031441;28;20245;-82
2022/11/20 09:03:26;;;;;;;12.35;9.82;;;8.40;99.90;;;;;;5031170;28;20199;-80
2022/11/20 09:06:00;;;;;;;12.90;11.23;;;8.40;99.90;;;;;;5029641;28;20184;-79
2022/11/20 09:08:28;;;;;;;12.27;10.45;;;8.50;99.90;;;;;;5030040;28;20307;-81
2022/11/20 09:10:56;;;;;;;13.52;11.82;;;8.50;99.90;;;;;;5031029;28;20169;-81
2022/11/20 09:13:23;;;;;;;15.13;11.85;;;8.50;99.90;;;;;;5030682;28;20198;-80
2022/11/20 09:15:59;;;;;;;16.90;13.05;;;8.60;99.90;;;;;;5030826;28;20256;-81
2022/11/20 09:18:26;;;;;;;14.88;11.98;;;8.60;99.90;;;;;;5029748;28;20170;-81
2022/11/20 09:20:57;;;;;;;12.57;11.00;;;8.70;99.90;;;;;;5030642;28;20592;-81
2022/11/20 09:23:23;;;;;;;15.05;12.52;;;8.70;99.90;;;;;;5030197;28;20194;-81
2022/11/20 09:25:48;;;;;;;16.40;12.77;;;8.60;99.90;;;;;;5030671;28;20192;-81
2022/11/20 09:28:14;;;;;;;14.00;11.00;;;8.60;99.90;;;;;;5036050;28;20171;-82
2022/11/20 09:30:40;;;;;;;14.67;11.70;;;8.70;99.90;;;;;;5032330;28;20868;-81
2022/11/20 09:33:06;;;;;;;17.73;13.97;;;8.80;99.90;;;;;;5028444;28;20677;-81
2022/11/20 09:35:32;;;;;;;13.83;11.60;;;8.90;99.90;;;;;;5029806;28;20827;-81
2022/11/20 09:37:58;;;;;;;12.32;11.00;;;9.10;99.90;;;;;;5028231;28;20944;-81
2022/11/20 09:40:27;;;;;;;19.20;12.43;;;9.10;99.90;;;;;;5029742;28;20170;-81
2022/11/20 09:43:12;;;;;;;13.10;11.05;;;9.10;99.90;;;;;;5029386;28;20182;-81
2022/11/20 09:45:41;;;;;;;15.02;11.52;;;9.20;99.90;;;;;;5030038;28;20169;-81
2022/11/20 09:48:31;;;;;;;13.43;10.80;;;9.30;99.90;;;;;;5030124;28;20222;-81
2022/11/20 09:51:13;;;;;;;14.80;11.98;;;9.40;99.90;;;;;;5030319;28;20158;-81
2022/11/20 09:54:00;;;;;;;12.73;10.75;;;9.50;99.90;;;;;;5029335;28;20180;-81
2022/11/20 09:56:28;;;;;;;12.55;11.20;;;9.70;99.90;;;;;;5030232;28;20177;-81
2022/11/20 09:58:59;;;;;;;14.63;11.85;;;9.80;99.90;;;;;;5028879;28;20252;-81
2022/11/20 10:01:30;;;;;;;15.35;12.95;;;9.90;99.90;;;;;;5030047;28;20181;-81
2022/11/20 10:04:15;;;;;;;15.70;11.95;;;9.90;99.90;;;;;;5029565;28;20201;-81
2022/11/20 10:07:02;;;;;;;13.95;11.63;;;9.90;99.90;;;;;;5031232;28;20791;-80
2022/11/20 10:09:36;;;;;;;13.23;10.95;;;9.80;99.90;;;;;;5029752;28;20646;-81
2022/11/20 10:12:25;;;;;;;14.98;12.25;;;9.80;99.90;;;;;;5029528;28;20662;-81
2022/11/20 10:15:00;;;;;;;13.35;11.10;;;9.70;99.90;;;;;;5029661;28;20184;-81
2022/11/20 10:17:45;;;;;;;11.90;9.75;;;9.60;99.90;;;;;;5029951;28;20191;-81
2022/11/20 10:21:20;;;;;;;;;;;;;;;;;;;;;
2022/11/20 10:24:34;;;;;;;15.20;11.73;;;9.50;99.90;;;;;;5028722;28;20692;-80
2022/11/20 10:27:20;;;;;;;14.35;10.50;;;9.40;99.90;;;;;;5029715;28;20272;-81
2022/11/20 10:30:10;;;;;;;14.07;12.07;;;9.40;99.90;;;;;;5028115;28;20712;-81
2022/11/20 10:32:40;;;;;;;15.35;11.15;;;9.40;99.90;;;;;;5028025;28;20277;-81
2022/11/20 10:35:27;;;;;;;13.32;10.95;;;9.40;99.90;;;;;;5029456;28;20174;-81
2022/11/20 10:37:59;;;;;;;13.45;10.63;;;9.40;99.90;;;;;;5030112;28;20172;-81
2022/11/20 10:40:25;;;;;;;14.90;12.45;;;9.30;99.90;;;;;;5029432;28;20703;-80
2022/11/20 10:42:55;;;;;;;16.30;13.27;;;9.30;99.90;;;;;;5024201;28;20190;-80
2022/11/20 10:45:24;;;;;;;17.98;15.23;;;9.20;99.90;;;;;;5025482;28;20173;-81
2022/11/20 10:48:07;;;;;;;18.00;14.55;;;9.20;99.90;;;;;;5028386;28;20170;-81
2022/11/20 10:50:37;;;;;;;15.73;14.05;;;9.10;99.90;;;;;;5028074;28;20657;-81
2022/11/20 10:53:29;;;;;;;16.48;14.05;;;9.10;99.90;;;;;;5029194;28;20190;-82
2022/11/20 10:56:06;;;;;;;21.90;15.43;;;9.00;99.90;;;;;;5014379;28;20740;-81
2022/11/20 10:58:55;;;;;;;14.85;13.13;;;8.90;99.90;;;;;;5029590;28;20231;-81
2022/11/20 11:01:26;;;;;;;16.40;13.40;;;8.70;99.90;;;;;;5028165;28;20166;-81
2022/11/20 11:03:54;;;;;;;16.63;13.85;;;8.70;99.90;;;;;;5029175;28;20256;-81
2022/11/20 11:06:34;;;;;;;15.38;12.75;;;8.60;99.90;;;;;;5032402;28;20165;-81
2022/11/20 11:09:06;;;;;;;19.60;15.52;;;8.60;99.90;;;;;;5032226;28;20182;-81
2022/11/20 11:11:33;;;;;;;19.13;12.82;;;8.50;99.90;;;;;;5033202;28;20186;-80
2022/11/20 11:14:14;;;;;;;18.05;14.07;;;8.50;99.90;;;;;;5032943;28;20162;-80
2022/11/20 11:16:57;;;;;;;19.55;16.50;;;8.40;99.90;;;;;;5032610;28;20906;-80
2022/11/20 11:19:24;;;;;;;16.45;13.77;;;8.30;99.90;;;;;;5033937;28;20273;-81
2022/11/20 11:21:53;;;;;;;15.52;13.25;;;8.30;99.90;;;;;;5036599;28;20251;-81
2022/11/20 11:24:26;;;;;;;15.43;13.80;;;8.40;99.90;;;;;;5056393;22;20279;-86
2022/11/20 11:27:05;;;;;;;16.00;13.27;;;8.40;99.90;;;;;;5015029;28;20173;-84
2022/11/20 11:29:31;;;;;;;14.93;11.65;;;8.50;99.90;;;;;;4998048;28;20193;-89
2022/11/20 11:32:11;;;;;;;16.30;13.02;;;8.50;99.90;;;;;;5042396;28;20177;-89
2022/11/20 11:34:37;;;;;;;16.90;12.73;;;8.50;99.90;;;;;;5002059;28;20201;-90
2022/11/20 11:37:04;;;;;;;14.17;12.17;;;8.50;99.90;;;;;;5027662;28;20166;-89
2022/11/20 11:39:32;;;;;;;15.93;12.40;;;8.50;99.90;;;;;;5016686;28;20578;-87
2022/11/20 11:42:00;;;;;;;15.38;12.70;;;8.50;99.90;;;;;;5014467;28;20170;-85
2022/11/20 11:47:23;;;;;;;18.25;14.20;;;8.60;99.90;;;;;;5036362;28;20213;-85
2022/11/20 11:50:00;;;;;;;17.42;14.80;;;8.60;99.90;;;;;;5037239;28;20526;-89
2022/11/20 11:52:26;;;;;;;15.82;12.38;;;8.70;99.90;;;;;;5036546;28;20276;-91
2022/11/20 11:54:56;;;;;;;17.88;13.60;;;8.70;99.90;;;;;;5038609;28;20190;-90
2022/11/20 11:57:53;;;;;;;18.63;14.60;;;8.70;99.90;;;;;;5038446;28;20474;-87
2022/11/20 12:00:21;;;;;;;14.85;12.70;;;8.70;99.90;;;;;;5036960;28;20208;-89
2022/11/20 12:03:14;;;;;;;18.38;14.68;;;8.70;99.90;;;;;;5036284;28;20193;-92
2022/11/20 12:05:46;;;;;;;18.13;12.73;;;8.60;99.90;;;;;;5038249;28;20202;-87
2022/11/20 12:08:35;;;;;;;18.40;15.52;;;8.60;99.90;;;;;;5021329;28;20205;-87
2022/11/20 12:11:19;;;;;;;20.40;18.20;;;8.60;99.90;;;;;;5031684;28;20737;-90
2022/11/20 12:13:48;;;;;;;21.45;18.00;;;8.50;99.90;;;;;;5037079;28;20185;-86
2022/11/20 12:16:19;;;;;;;19.10;14.77;;;8.50;99.90;;;;;;5030598;28;20176;-87
2022/11/20 12:18:48;;;;;;;17.98;14.75;;;8.60;99.90;;;;;;5036206;28;20233;-88
2022/11/20 12:21:23;;;;;;;18.58;14.95;;;8.60;99.90;;;;;;5035746;28;20170;-88
2022/11/20 12:24:26;;;;;;;17.95;13.60;;;8.70;99.90;;;;;;5017552;28;20212;-88
2022/11/20 12:26:55;;;;;;;19.45;15.80;;;8.70;99.90;;;;;;5017593;28;20208;-88
2022/11/20 12:29:41;;;;;;;17.67;14.85;;;8.70;99.90;;;;;;5033822;28;20185;-89
2022/11/20 12:32:13;;;;;;;16.77;14.65;;;8.70;99.90;;;;;;5015678;28;20252;-89
2022/11/20 12:34:39;;;;;;;18.35;15.30;;;8.70;99.90;;;;;;5015807;28;20692;-88
2022/11/20 12:37:29;;;;;;;18.30;14.87;;;8.70;99.90;;;;;;5033133;28;20165;-89
2022/11/20 12:40:01;;;;;;;16.50;13.00;;;8.70;99.90;;;;;;5015259;28;20642;-74
2022/11/20 12:45:57;;;;;;;16.10;12.60;;;8.70;99.90;;;;;;5036519;28;20335;-74
2022/11/20 12:48:35;;;;;;;13.77;11.90;;;8.70;99.90;;;;;;5031777;28;20509;-74
2022/11/20 12:51:13;;;;;;;15.98;12.77;;;8.70;99.90;;;;;;5031581;28;20177;-74
2022/11/20 12:53:56;;;;;;;14.38;12.98;;;8.70;99.90;;;;;;5031216;28;20499;-74
2022/11/20 12:56:51;;;;;;;20.52;15.20;;;8.70;99.90;;;;;;5013937;28;20253;-74
2022/11/20 12:59:17;;;;;;;16.65;12.88;;;8.70;99.90;;;;;;5013590;28;20277;-74
2022/11/20 13:01:52;;;;;;;18.97;14.63;;;8.80;99.90;;;;;;5031378;28;20241;-74
2022/11/20 13:04:24;;;;;;;18.88;15.13;;;8.70;99.90;;;;;;5012944;28;20205;-76
2022/11/20 13:06:50;;;;;;;17.63;13.85;;;8.80;99.90;;;;;;5013669;28;20157;-74